Airports Germany Berlin-Schönefeld Airport

Berlin-Schönefeld Airport (EDDB / SXF)

Facts about Berlin-Schönefeld Airport

Name Berlin-Schönefeld Airport
City Berlin
Country Germany
ICAO code EDDB
IATA code SXF
Elevation 47.8536 meters (157 feet)

Weather

METAR

Metar data retrieved Friday, 19 July 2024 at 23:25 UTC (21 minutes ago)

EDDB 192250Z AUTO 03005KT CAVOK 19/14 Q1017

Live traffic

Navigraph Charts (account required)